sensor_id;sensor_type;location;lat;lon;timestamp;P1;durP1;ratioP1;P2;durP2;ratioP2
3547;SDS011;1788;49.400;11.092;2022-08-01T00:00:46;5.23;;;4.97;;
3547;SDS011;1788;49.400;11.092;2022-08-01T00:03:12;5.23;;;4.93;;
3547;SDS011;1788;49.400;11.092;2022-08-01T00:05:39;4.90;;;4.60;;
3547;SDS011;1788;49.400;11.092;2022-08-01T00:08:06;5.23;;;4.93;;
3547;SDS011;1788;49.400;11.092;2022-08-01T00:10:32;5.10;;;4.80;;
3547;SDS011;1788;49.400;11.092;2022-08-01T00:12:59;5.33;;;5.03;;
3547;SDS011;1788;49.400;11.092;2022-08-01T00:15:25;5.30;;;5.00;;
3547;SDS011;1788;49.400;11.092;2022-08-01T00:17:52;4.97;;;4.67;;
3547;SDS011;1788;49.400;11.092;2022-08-01T00:20:19;5.20;;;4.90;;
3547;SDS011;1788;49.400;11.092;2022-08-01T00:22:46;5.30;;;5.00;;
3547;SDS011;1788;49.400;11.092;2022-08-01T00:25:13;6.87;;;4.93;;
3547;SDS011;1788;49.400;11.092;2022-08-01T00:27:39;5.37;;;5.07;;
3547;SDS011;1788;49.400;11.092;2022-08-01T00:30:06;5.23;;;4.93;;
3547;SDS011;1788;49.400;11.092;2022-08-01T00:32:33;5.30;;;4.93;;
3547;SDS011;1788;49.400;11.092;2022-08-01T00:35:00;5.10;;;4.80;;
3547;SDS011;1788;49.400;11.092;2022-08-01T00:37:27;5.37;;;5.07;;
3547;SDS011;1788;49.400;11.092;2022-08-01T00:39:54;5.00;;;4.70;;
3547;SDS011;1788;49.400;11.092;2022-08-01T00:42:21;6.37;;;5.37;;
3547;SDS011;1788;49.400;11.092;2022-08-01T00:44:48;6.63;;;5.90;;
3547;SDS011;1788;49.400;11.092;2022-08-01T00:47:14;6.07;;;5.27;;
3547;SDS011;1788;49.400;11.092;2022-08-01T00:49:41;5.83;;;5.57;;
3547;SDS011;1788;49.400;11.092;2022-08-01T00:52:08;5.40;;;5.10;;
3547;SDS011;1788;49.400;11.092;2022-08-01T00:54:34;5.97;;;5.67;;
3547;SDS011;1788;49.400;11.092;2022-08-01T00:57:02;5.33;;;5.03;;
3547;SDS011;1788;49.400;11.092;2022-08-01T00:59:28;6.07;;;5.67;;
3547;SDS011;1788;49.400;11.092;2022-08-01T01:01:55;5.70;;;5.30;;
3547;SDS011;1788;49.400;11.092;2022-08-01T01:04:21;5.20;;;4.90;;
3547;SDS011;1788;49.400;11.092;2022-08-01T01:06:49;5.73;;;5.43;;
3547;SDS011;1788;49.400;11.092;2022-08-01T01:09:17;7.87;;;5.87;;
3547;SDS011;1788;49.400;11.092;2022-08-01T01:14:10;5.73;;;5.43;;
3547;SDS011;1788;49.400;11.092;2022-08-01T01:16:36;5.53;;;5.03;;
3547;SDS011;1788;49.400;11.092;2022-08-01T01:19:03;7.30;;;5.80;;
3547;SDS011;1788;49.400;11.092;2022-08-01T01:21:32;5.80;;;5.50;;
3547;SDS011;1788;49.400;11.092;2022-08-01T01:24:07;5.70;;;5.40;;
3547;SDS011;1788;49.400;11.092;2022-08-01T01:31:16;6.57;;;6.13;;
3547;SDS011;1788;49.400;11.092;2022-08-01T01:33:42;6.17;;;5.90;;
3547;SDS011;1788;49.400;11.092;2022-08-01T01:36:09;5.57;;;5.27;;
3547;SDS011;1788;49.400;11.092;2022-08-01T01:38:37;6.37;;;5.67;;
3547;SDS011;1788;49.400;11.092;2022-08-01T01:41:03;5.93;;;5.60;;
3547;SDS011;1788;49.400;11.092;2022-08-01T01:43:30;6.63;;;6.10;;
3547;SDS011;1788;49.400;11.092;2022-08-01T01:45:56;6.60;;;6.07;;
3547;SDS011;1788;49.400;11.092;2022-08-01T01:48:23;5.90;;;5.60;;
3547;SDS011;1788;49.400;11.092;2022-08-01T01:50:51;7.47;;;5.70;;
3547;SDS011;1788;49.400;11.092;2022-08-01T01:53:18;6.53;;;5.30;;
3547;SDS011;1788;49.400;11.092;2022-08-01T01:55:44;6.37;;;6.00;;
3547;SDS011;1788;49.400;11.092;2022-08-01T01:58:11;8.13;;;5.67;;
3547;SDS011;1788;49.400;11.092;2022-08-01T02:00:36;6.30;;;5.93;;
3547;SDS011;1788;49.400;11.092;2022-08-01T02:03:04;5.93;;;5.23;;
3547;SDS011;1788;49.400;11.092;2022-08-01T02:05:30;6.40;;;6.03;;
3547;SDS011;1788;49.400;11.092;2022-08-01T02:07:56;7.03;;;5.77;;
3547;SDS011;1788;49.400;11.092;2022-08-01T02:10:23;5.90;;;5.60;;
3547;SDS011;1788;49.400;11.092;2022-08-01T02:12:50;6.67;;;5.60;;
3547;SDS011;1788;49.400;11.092;2022-08-01T02:15:17;6.27;;;5.57;;
3547;SDS011;1788;49.400;11.092;2022-08-01T02:17:46;6.90;;;5.57;;
3547;SDS011;1788;49.400;11.092;2022-08-01T02:20:11;6.13;;;5.87;;
3547;SDS011;1788;49.400;11.092;2022-08-01T02:30:00;6.57;;;6.17;;
3547;SDS011;1788;49.400;11.092;2022-08-01T02:34:52;5.37;;;5.07;;
3547;SDS011;1788;49.400;11.092;2022-08-01T02:37:18;6.57;;;5.80;;
3547;SDS011;1788;49.400;11.092;2022-08-01T02:39:46;7.60;;;5.67;;
3547;SDS011;1788;49.400;11.092;2022-08-01T02:42:11;6.27;;;5.93;;
3547;SDS011;1788;49.400;11.092;2022-08-01T02:44:39;6.17;;;5.90;;
3547;SDS011;1788;49.400;11.092;2022-08-01T02:47:05;5.73;;;5.43;;
3547;SDS011;1788;49.400;11.092;2022-08-01T02:49:33;6.17;;;5.87;;
3547;SDS011;1788;49.400;11.092;2022-08-01T02:51:59;6.10;;;5.80;;
3547;SDS011;1788;49.400;11.092;2022-08-01T02:54:24;6.37;;;5.53;;
3547;SDS011;1788;49.400;11.092;2022-08-01T02:56:51;6.20;;;5.90;;
3547;SDS011;1788;49.400;11.092;2022-08-01T02:59:19;6.10;;;5.80;;
3547;SDS011;1788;49.400;11.092;2022-08-01T03:01:45;7.07;;;5.70;;
3547;SDS011;1788;49.400;11.092;2022-08-01T03:04:12;5.93;;;5.63;;
3547;SDS011;1788;49.400;11.092;2022-08-01T03:06:38;5.80;;;5.47;;
3547;SDS011;1788;49.400;11.092;2022-08-01T03:09:05;7.67;;;6.03;;
3547;SDS011;1788;49.400;11.092;2022-08-01T03:11:32;5.30;;;5.00;;
3547;SDS011;1788;49.400;11.092;2022-08-01T03:13:59;6.10;;;5.80;;
3547;SDS011;1788;49.400;11.092;2022-08-01T03:16:26;7.03;;;5.97;;
3547;SDS011;1788;49.400;11.092;2022-08-01T03:18:53;6.93;;;5.60;;
3547;SDS011;1788;49.400;11.092;2022-08-01T03:21:19;5.67;;;5.37;;
3547;SDS011;1788;49.400;11.092;2022-08-01T03:23:45;6.20;;;5.90;;
3547;SDS011;1788;49.400;11.092;2022-08-01T03:26:13;7.97;;;6.50;;
3547;SDS011;1788;49.400;11.092;2022-08-01T03:28:40;8.30;;;5.93;;
3547;SDS011;1788;49.400;11.092;2022-08-01T03:31:06;6.70;;;6.13;;
3547;SDS011;1788;49.400;11.092;2022-08-01T03:33:33;6.70;;;6.27;;
3547;SDS011;1788;49.400;11.092;2022-08-01T03:35:59;6.23;;;5.73;;
3547;SDS011;1788;49.400;11.092;2022-08-01T03:38:26;6.47;;;6.10;;
3547;SDS011;1788;49.400;11.092;2022-08-01T03:43:32;6.10;;;5.77;;
3547;SDS011;1788;49.400;11.092;2022-08-01T03:45:46;5.63;;;5.33;;
3547;SDS011;1788;49.400;11.092;2022-08-01T03:48:14;7.50;;;6.20;;
3547;SDS011;1788;49.400;11.092;2022-08-01T03:50:41;6.47;;;6.07;;
3547;SDS011;1788;49.400;11.092;2022-08-01T03:53:07;6.90;;;5.73;;
3547;SDS011;1788;49.400;11.092;2022-08-01T03:55:34;6.23;;;5.67;;
3547;SDS011;1788;49.400;11.092;2022-08-01T03:58:00;5.83;;;5.53;;
3547;SDS011;1788;49.400;11.092;2022-08-01T04:00:27;5.77;;;5.43;;
3547;SDS011;1788;49.400;11.092;2022-08-01T04:02:53;6.67;;;5.90;;
3547;SDS011;1788;49.400;11.092;2022-08-01T04:05:20;7.73;;;6.23;;
3547;SDS011;1788;49.400;11.092;2022-08-01T04:07:47;5.80;;;5.50;;
3547;SDS011;1788;49.400;11.092;2022-08-01T04:10:13;6.03;;;5.73;;
3547;SDS011;1788;49.400;11.092;2022-08-01T04:12:40;5.83;;;5.53;;
3547;SDS011;1788;49.400;11.092;2022-08-01T04:15:07;6.23;;;5.93;;
3547;SDS011;1788;49.400;11.092;2022-08-01T04:17:33;5.63;;;5.37;;
3547;SDS011;1788;49.400;11.092;2022-08-01T04:20:00;5.70;;;5.47;;
3547;SDS011;1788;49.400;11.092;2022-08-01T04:22:26;6.80;;;6.40;;
3547;SDS011;1788;49.400;11.092;2022-08-01T04:24:54;6.63;;;5.63;;
3547;SDS011;1788;49.400;11.092;2022-08-01T04:27:22;6.23;;;5.93;;
3547;SDS011;1788;49.400;11.092;2022-08-01T04:29:47;6.80;;;6.10;;
3547;SDS011;1788;49.400;11.092;2022-08-01T04:32:14;10.03;;;6.83;;
3547;SDS011;1788;49.400;11.092;2022-08-01T04:34:40;7.27;;;5.93;;
3547;SDS011;1788;49.400;11.092;2022-08-01T04:37:09;5.97;;;5.67;;
3547;SDS011;1788;49.400;11.092;2022-08-01T04:39:34;5.93;;;5.63;;
3547;SDS011;1788;49.400;11.092;2022-08-01T04:42:02;5.83;;;5.53;;
3547;SDS011;1788;49.400;11.092;2022-08-01T04:44:28;6.17;;;5.67;;
3547;SDS011;1788;49.400;11.092;2022-08-01T04:46:55;6.53;;;5.77;;
3547;SDS011;1788;49.400;11.092;2022-08-01T04:49:21;7.73;;;6.00;;
3547;SDS011;1788;49.400;11.092;2022-08-01T04:54:15;8.07;;;6.07;;
3547;SDS011;1788;49.400;11.092;2022-08-01T04:56:42;7.47;;;5.63;;
3547;SDS011;1788;49.400;11.092;2022-08-01T04:59:09;8.83;;;6.10;;
3547;SDS011;1788;49.400;11.092;2022-08-01T05:01:35;5.77;;;5.43;;
3547;SDS011;1788;49.400;11.092;2022-08-01T05:04:02;6.53;;;5.43;;
3547;SDS011;1788;49.400;11.092;2022-08-01T05:06:28;6.63;;;5.83;;
3547;SDS011;1788;49.400;11.092;2022-08-01T05:08:56;7.10;;;6.00;;
3547;SDS011;1788;49.400;11.092;2022-08-01T05:11:22;8.70;;;6.07;;
3547;SDS011;1788;49.400;11.092;2022-08-01T05:13:50;6.17;;;5.87;;
3547;SDS011;1788;49.400;11.092;2022-08-01T05:16:16;6.57;;;5.67;;
3547;SDS011;1788;49.400;11.092;2022-08-01T05:18:44;5.97;;;5.33;;
3547;SDS011;1788;49.400;11.092;2022-08-01T05:21:10;6.73;;;5.60;;
3547;SDS011;1788;49.400;11.092;2022-08-01T05:23:37;5.43;;;5.13;;
3547;SDS011;1788;49.400;11.092;2022-08-01T05:26:04;7.43;;;5.90;;
3547;SDS011;1788;49.400;11.092;2022-08-01T05:28:31;6.80;;;5.80;;
3547;SDS011;1788;49.400;11.092;2022-08-01T05:30:57;5.00;;;4.70;;
3547;SDS011;1788;49.400;11.092;2022-08-01T05:33:25;5.30;;;3.90;;
3547;SDS011;1788;49.400;11.092;2022-08-01T05:35:52;5.00;;;4.00;;
3547;SDS011;1788;49.400;11.092;2022-08-01T05:38:18;4.03;;;3.50;;
3547;SDS011;1788;49.400;11.092;2022-08-01T05:40:45;3.87;;;3.67;;
3547;SDS011;1788;49.400;11.092;2022-08-01T05:43:11;4.80;;;3.70;;
3547;SDS011;1788;49.400;11.092;2022-08-01T05:45:39;3.57;;;3.37;;
3547;SDS011;1788;49.400;11.092;2022-08-01T05:48:05;3.50;;;3.30;;
3547;SDS011;1788;49.400;11.092;2022-08-01T05:50:33;3.73;;;3.53;;
3547;SDS011;1788;49.400;11.092;2022-08-01T05:52:59;5.20;;;3.63;;
3547;SDS011;1788;49.400;11.092;2022-08-01T05:55:26;3.77;;;3.20;;
3547;SDS011;1788;49.400;11.092;2022-08-01T05:57:54;3.43;;;3.23;;
3547;SDS011;1788;49.400;11.092;2022-08-01T06:00:21;5.13;;;3.80;;
3547;SDS011;1788;49.400;11.092;2022-08-01T06:02:48;3.87;;;3.30;;
3547;SDS011;1788;49.400;11.092;2022-08-01T06:05:15;4.03;;;3.30;;
3547;SDS011;1788;49.400;11.092;2022-08-01T06:07:41;3.13;;;2.93;;
3547;SDS011;1788;49.400;11.092;2022-08-01T06:10:07;3.67;;;3.30;;
3547;SDS011;1788;49.400;11.092;2022-08-01T06:12:35;3.30;;;2.77;;
3547;SDS011;1788;49.400;11.092;2022-08-01T06:15:02;5.30;;;3.07;;
3547;SDS011;1788;49.400;11.092;2022-08-01T06:17:29;3.33;;;3.13;;
3547;SDS011;1788;49.400;11.092;2022-08-01T06:19:55;4.40;;;3.07;;
3547;SDS011;1788;49.400;11.092;2022-08-01T06:22:23;3.03;;;2.83;;
3547;SDS011;1788;49.400;11.092;2022-08-01T06:24:49;3.03;;;2.83;;
3547;SDS011;1788;49.400;11.092;2022-08-01T06:27:17;3.07;;;2.87;;
3547;SDS011;1788;49.400;11.092;2022-08-01T06:29:43;3.30;;;3.10;;
3547;SDS011;1788;49.400;11.092;2022-08-01T06:32:10;3.43;;;3.23;;
3547;SDS011;1788;49.400;11.092;2022-08-01T06:34:37;2.83;;;2.70;;
3547;SDS011;1788;49.400;11.092;2022-08-01T06:37:03;3.17;;;2.97;;
3547;SDS011;1788;49.400;11.092;2022-08-01T06:39:30;5.93;;;3.37;;
3547;SDS011;1788;49.400;11.092;2022-08-01T06:41:56;4.60;;;3.07;;
3547;SDS011;1788;49.400;11.092;2022-08-01T06:44:23;4.37;;;3.17;;
3547;SDS011;1788;49.400;11.092;2022-08-01T06:46:50;2.77;;;2.57;;
3547;SDS011;1788;49.400;11.092;2022-08-01T06:49:16;4.90;;;3.03;;
3547;SDS011;1788;49.400;11.092;2022-08-01T06:51:43;3.17;;;3.00;;
3547;SDS011;1788;49.400;11.092;2022-08-01T06:54:09;2.83;;;2.63;;
3547;SDS011;1788;49.400;11.092;2022-08-01T06:56:37;3.03;;;2.83;;
3547;SDS011;1788;49.400;11.092;2022-08-01T06:59:03;4.63;;;3.30;;
3547;SDS011;1788;49.400;11.092;2022-08-01T07:01:31;3.43;;;3.17;;
3547;SDS011;1788;49.400;11.092;2022-08-01T07:03:57;3.07;;;2.87;;
3547;SDS011;1788;49.400;11.092;2022-08-01T07:06:24;3.50;;;3.00;;
3547;SDS011;1788;49.400;11.092;2022-08-01T07:08:51;3.63;;;3.10;;
3547;SDS011;1788;49.400;11.092;2022-08-01T07:11:17;3.87;;;3.00;;
3547;SDS011;1788;49.400;11.092;2022-08-01T07:13:44;2.87;;;2.67;;
3547;SDS011;1788;49.400;11.092;2022-08-01T07:16:11;2.90;;;2.70;;
3547;SDS011;1788;49.400;11.092;2022-08-01T07:18:37;2.90;;;2.70;;
3547;SDS011;1788;49.400;11.092;2022-08-01T07:21:04;3.17;;;2.57;;
3547;SDS011;1788;49.400;11.092;2022-08-01T07:23:31;2.90;;;2.70;;
3547;SDS011;1788;49.400;11.092;2022-08-01T07:25:58;2.70;;;2.50;;
3547;SDS011;1788;49.400;11.092;2022-08-01T07:28:25;3.67;;;3.13;;
3547;SDS011;1788;49.400;11.092;2022-08-01T07:30:52;2.90;;;2.70;;
3547;SDS011;1788;49.400;11.092;2022-08-01T07:33:18;3.07;;;2.67;;
3547;SDS011;1788;49.400;11.092;2022-08-01T07:35:45;3.20;;;3.00;;
3547;SDS011;1788;49.400;11.092;2022-08-01T07:38:11;2.47;;;2.23;;
3547;SDS011;1788;49.400;11.092;2022-08-01T07:40:39;2.33;;;2.13;;
3547;SDS011;1788;49.400;11.092;2022-08-01T07:43:05;2.70;;;2.57;;
3547;SDS011;1788;49.400;11.092;2022-08-01T07:45:33;2.33;;;2.20;;
3547;SDS011;1788;49.400;11.092;2022-08-01T07:50:26;3.80;;;2.87;;
3547;SDS011;1788;49.400;11.092;2022-08-01T07:52:53;2.13;;;1.90;;
3547;SDS011;1788;49.400;11.092;2022-08-01T07:55:19;2.57;;;2.37;;
3547;SDS011;1788;49.400;11.092;2022-08-01T07:57:47;3.07;;;2.50;;
3547;SDS011;1788;49.400;11.092;2022-08-01T08:00:13;2.80;;;2.57;;
3547;SDS011;1788;49.400;11.092;2022-08-01T08:02:41;2.50;;;2.20;;
3547;SDS011;1788;49.400;11.092;2022-08-01T08:05:07;2.33;;;2.10;;
3547;SDS011;1788;49.400;11.092;2022-08-01T08:07:34;2.93;;;2.00;;
3547;SDS011;1788;49.400;11.092;2022-08-01T08:10:01;2.73;;;1.97;;
3547;SDS011;1788;49.400;11.092;2022-08-01T08:12:27;4.13;;;2.53;;
3547;SDS011;1788;49.400;11.092;2022-08-01T08:14:54;2.30;;;2.10;;
3547;SDS011;1788;49.400;11.092;2022-08-01T08:17:21;5.57;;;2.60;;
3547;SDS011;1788;49.400;11.092;2022-08-01T08:19:47;2.60;;;2.40;;
3547;SDS011;1788;49.400;11.092;2022-08-01T08:22:14;6.13;;;3.00;;
3547;SDS011;1788;49.400;11.092;2022-08-01T08:24:41;2.13;;;1.97;;
3547;SDS011;1788;49.400;11.092;2022-08-01T08:27:08;2.37;;;2.13;;
3547;SDS011;1788;49.400;11.092;2022-08-01T08:29:35;2.20;;;2.00;;
3547;SDS011;1788;49.400;11.092;2022-08-01T08:32:02;2.53;;;2.00;;
3547;SDS011;1788;49.400;11.092;2022-08-01T08:34:29;2.33;;;2.13;;
3547;SDS011;1788;49.400;11.092;2022-08-01T08:36:56;2.67;;;2.27;;
3547;SDS011;1788;49.400;11.092;2022-08-01T08:39:22;2.50;;;2.30;;
3547;SDS011;1788;49.400;11.092;2022-08-01T08:41:49;4.23;;;2.43;;
3547;SDS011;1788;49.400;11.092;2022-08-01T08:44:16;2.50;;;2.00;;
3547;SDS011;1788;49.400;11.092;2022-08-01T08:46:44;1.87;;;1.80;;
3547;SDS011;1788;49.400;11.092;2022-08-01T08:49:10;2.40;;;2.00;;
3547;SDS011;1788;49.400;11.092;2022-08-01T08:51:38;2.27;;;2.07;;
3547;SDS011;1788;49.400;11.092;2022-08-01T08:54:03;2.03;;;1.93;;
3547;SDS011;1788;49.400;11.092;2022-08-01T08:56:31;2.00;;;1.90;;
3547;SDS011;1788;49.400;11.092;2022-08-01T08:58:58;2.30;;;2.10;;
3547;SDS011;1788;49.400;11.092;2022-08-01T09:01:24;2.67;;;2.53;;
3547;SDS011;1788;49.400;11.092;2022-08-01T09:03:51;2.37;;;2.20;;
3547;SDS011;1788;49.400;11.092;2022-08-01T09:06:18;3.67;;;2.50;;
3547;SDS011;1788;49.400;11.092;2022-08-01T09:08:45;1.77;;;1.70;;
3547;SDS011;1788;49.400;11.092;2022-08-01T09:11:12;1.73;;;1.50;;
3547;SDS011;1788;49.400;11.092;2022-08-01T09:13:39;1.87;;;1.80;;
3547;SDS011;1788;49.400;11.092;2022-08-01T09:16:06;1.87;;;1.77;;
3547;SDS011;1788;49.400;11.092;2022-08-01T09:25:54;1.90;;;1.80;;
3547;SDS011;1788;49.400;11.092;2022-08-01T09:28:26;1.60;;;1.50;;
3547;SDS011;1788;49.400;11.092;2022-08-01T09:30:48;2.43;;;2.30;;
3547;SDS011;1788;49.400;11.092;2022-08-01T09:33:14;2.50;;;1.73;;
3547;SDS011;1788;49.400;11.092;2022-08-01T09:35:41;1.73;;;1.50;;
3547;SDS011;1788;49.400;11.092;2022-08-01T09:47:56;2.63;;;1.43;;
3547;SDS011;1788;49.400;11.092;2022-08-01T09:50:22;2.00;;;1.50;;
3547;SDS011;1788;49.400;11.092;2022-08-01T09:55:20;1.20;;;1.10;;
3547;SDS011;1788;49.400;11.092;2022-08-01T09:57:54;2.47;;;1.40;;
3547;SDS011;1788;49.400;11.092;2022-08-01T10:00:18;2.13;;;1.10;;
3547;SDS011;1788;49.400;11.092;2022-08-01T10:02:38;1.40;;;1.30;;
3547;SDS011;1788;49.400;11.092;2022-08-01T10:05:04;2.47;;;1.47;;
3547;SDS011;1788;49.400;11.092;2022-08-01T10:07:31;1.70;;;1.13;;
3547;SDS011;1788;49.400;11.092;2022-08-01T10:12:25;1.10;;;1.00;;
3547;SDS011;1788;49.400;11.092;2022-08-01T10:14:52;1.67;;;1.10;;
3547;SDS011;1788;49.400;11.092;2022-08-01T10:17:19;1.43;;;1.33;;
3547;SDS011;1788;49.400;11.092;2022-08-01T10:19:46;1.67;;;1.40;;
3547;SDS011;1788;49.400;11.092;2022-08-01T10:22:13;1.70;;;1.53;;
3547;SDS011;1788;49.400;11.092;2022-08-01T10:24:40;1.63;;;1.53;;
3547;SDS011;1788;49.400;11.092;2022-08-01T10:27:08;1.30;;;1.20;;
3547;SDS011;1788;49.400;11.092;2022-08-01T10:29:35;1.20;;;1.10;;
3547;SDS011;1788;49.400;11.092;2022-08-01T10:31:59;1.53;;;1.43;;
3547;SDS011;1788;49.400;11.092;2022-08-01T10:34:26;1.80;;;1.10;;
3547;SDS011;1788;49.400;11.092;2022-08-01T10:36:52;1.57;;;1.53;;
3547;SDS011;1788;49.400;11.092;2022-08-01T10:39:19;1.57;;;1.47;;
3547;SDS011;1788;49.400;11.092;2022-08-01T10:41:46;1.37;;;1.30;;
3547;SDS011;1788;49.400;11.092;2022-08-01T10:44:12;1.77;;;1.67;;
3547;SDS011;1788;49.400;11.092;2022-08-01T10:46:39;3.03;;;1.60;;
3547;SDS011;1788;49.400;11.092;2022-08-01T10:53:59;2.37;;;1.50;;
3547;SDS011;1788;49.400;11.092;2022-08-01T10:56:39;2.00;;;1.60;;
3547;SDS011;1788;49.400;11.092;2022-08-01T11:01:22;1.53;;;1.40;;
3547;SDS011;1788;49.400;11.092;2022-08-01T11:06:15;1.90;;;1.50;;
3547;SDS011;1788;49.400;11.092;2022-08-01T11:08:41;1.30;;;1.13;;
3547;SDS011;1788;49.400;11.092;2022-08-01T11:11:07;1.70;;;1.60;;
3547;SDS011;1788;49.400;11.092;2022-08-01T11:16:24;1.63;;;1.53;;
3547;SDS011;1788;49.400;11.092;2022-08-01T11:18:29;1.53;;;1.40;;
3547;SDS011;1788;49.400;11.092;2022-08-01T11:23:23;1.50;;;1.40;;
3547;SDS011;1788;49.400;11.092;2022-08-01T11:28:19;1.63;;;1.53;;
3547;SDS011;1788;49.400;11.092;2022-08-01T11:30:46;2.07;;;1.53;;
3547;SDS011;1788;49.400;11.092;2022-08-01T11:33:13;1.57;;;1.43;;
3547;SDS011;1788;49.400;11.092;2022-08-01T11:40:32;1.50;;;1.40;;
3547;SDS011;1788;49.400;11.092;2022-08-01T11:45:45;1.13;;;1.03;;
3547;SDS011;1788;49.400;11.092;2022-08-01T11:47:53;1.07;;;0.97;;
3547;SDS011;1788;49.400;11.092;2022-08-01T11:52:47;1.47;;;1.20;;
3547;SDS011;1788;49.400;11.092;2022-08-01T11:55:13;2.13;;;1.57;;
3547;SDS011;1788;49.400;11.092;2022-08-01T11:57:40;1.10;;;1.00;;
3547;SDS011;1788;49.400;11.092;2022-08-01T12:02:34;1.50;;;1.07;;
3547;SDS011;1788;49.400;11.092;2022-08-01T12:07:29;1.33;;;1.30;;
3547;SDS011;1788;49.400;11.092;2022-08-01T12:12:21;1.07;;;0.97;;
3547;SDS011;1788;49.400;11.092;2022-08-01T12:17:14;1.33;;;1.23;;
3547;SDS011;1788;49.400;11.092;2022-08-01T12:19:41;2.00;;;1.33;;
3547;SDS011;1788;49.400;11.092;2022-08-01T12:22:09;1.40;;;1.30;;
3547;SDS011;1788;49.400;11.092;2022-08-01T12:24:36;2.73;;;1.43;;
3547;SDS011;1788;49.400;11.092;2022-08-01T12:27:03;1.10;;;1.00;;
3547;SDS011;1788;49.400;11.092;2022-08-01T12:31:56;1.20;;;1.10;;
3547;SDS011;1788;49.400;11.092;2022-08-01T12:36:49;1.73;;;1.63;;
3547;SDS011;1788;49.400;11.092;2022-08-01T12:39:17;1.07;;;1.00;;
3547;SDS011;1788;49.400;11.092;2022-08-01T12:41:44;1.37;;;1.20;;
3547;SDS011;1788;49.400;11.092;2022-08-01T12:44:13;1.93;;;1.83;;
3547;SDS011;1788;49.400;11.092;2022-08-01T12:46:38;2.27;;;1.57;;
3547;SDS011;1788;49.400;11.092;2022-08-01T12:49:05;1.10;;;1.00;;
3547;SDS011;1788;49.400;11.092;2022-08-01T12:51:32;1.20;;;1.10;;
3547;SDS011;1788;49.400;11.092;2022-08-01T12:53:59;1.57;;;1.47;;
3547;SDS011;1788;49.400;11.092;2022-08-01T12:58:53;1.50;;;1.40;;
3547;SDS011;1788;49.400;11.092;2022-08-01T13:01:24;2.60;;;2.40;;
3547;SDS011;1788;49.400;11.092;2022-08-01T13:06:14;3.00;;;1.50;;
3547;SDS011;1788;49.400;11.092;2022-08-01T13:08:39;1.97;;;1.67;;
3547;SDS011;1788;49.400;11.092;2022-08-01T13:18:28;1.27;;;1.17;;
3547;SDS011;1788;49.400;11.092;2022-08-01T13:23:20;1.47;;;1.37;;
3547;SDS011;1788;49.400;11.092;2022-08-01T13:25:48;1.40;;;1.30;;
3547;SDS011;1788;49.400;11.092;2022-08-01T13:28:15;1.40;;;1.30;;
3547;SDS011;1788;49.400;11.092;2022-08-01T13:30:50;1.43;;;1.33;;
3547;SDS011;1788;49.400;11.092;2022-08-01T13:33:08;1.33;;;1.23;;
3547;SDS011;1788;49.400;11.092;2022-08-01T13:35:34;1.53;;;1.37;;
3547;SDS011;1788;49.400;11.092;2022-08-01T13:38:01;1.40;;;1.30;;
3547;SDS011;1788;49.400;11.092;2022-08-01T13:40:27;2.50;;;1.63;;
3547;SDS011;1788;49.400;11.092;2022-08-01T13:42:54;1.83;;;1.43;;
3547;SDS011;1788;49.400;11.092;2022-08-01T13:45:21;3.17;;;1.87;;
3547;SDS011;1788;49.400;11.092;2022-08-01T13:47:48;1.60;;;1.50;;
3547;SDS011;1788;49.400;11.092;2022-08-01T13:50:15;1.90;;;1.80;;
3547;SDS011;1788;49.400;11.092;2022-08-01T13:52:42;2.17;;;1.67;;
3547;SDS011;1788;49.400;11.092;2022-08-01T13:55:08;1.43;;;1.37;;
3547;SDS011;1788;49.400;11.092;2022-08-01T13:57:36;1.83;;;1.63;;
3547;SDS011;1788;49.400;11.092;2022-08-01T14:02:29;2.10;;;1.80;;
3547;SDS011;1788;49.400;11.092;2022-08-01T14:04:56;1.90;;;1.80;;
3547;SDS011;1788;49.400;11.092;2022-08-01T14:07:22;1.57;;;1.47;;
3547;SDS011;1788;49.400;11.092;2022-08-01T14:09:50;1.43;;;1.33;;
3547;SDS011;1788;49.400;11.092;2022-08-01T14:12:16;1.43;;;1.37;;
3547;SDS011;1788;49.400;11.092;2022-08-01T14:14:43;2.07;;;1.63;;
3547;SDS011;1788;49.400;11.092;2022-08-01T14:17:10;1.80;;;1.73;;
3547;SDS011;1788;49.400;11.092;2022-08-01T14:19:36;2.93;;;1.63;;
3547;SDS011;1788;49.400;11.092;2022-08-01T14:22:03;1.40;;;1.33;;
3547;SDS011;1788;49.400;11.092;2022-08-01T14:24:29;1.90;;;1.13;;
3547;SDS011;1788;49.400;11.092;2022-08-01T14:26:56;1.90;;;1.80;;
3547;SDS011;1788;49.400;11.092;2022-08-01T14:29:23;1.50;;;1.40;;
3547;SDS011;1788;49.400;11.092;2022-08-01T14:31:49;1.43;;;1.33;;
3547;SDS011;1788;49.400;11.092;2022-08-01T14:34:16;1.23;;;1.13;;
3547;SDS011;1788;49.400;11.092;2022-08-01T14:36:42;1.73;;;1.40;;
3547;SDS011;1788;49.400;11.092;2022-08-01T14:39:09;1.57;;;1.50;;
3547;SDS011;1788;49.400;11.092;2022-08-01T14:41:36;1.13;;;1.03;;
3547;SDS011;1788;49.400;11.092;2022-08-01T14:44:03;1.10;;;1.00;;
3547;SDS011;1788;49.400;11.092;2022-08-01T14:46:30;1.37;;;1.13;;
3547;SDS011;1788;49.400;11.092;2022-08-01T14:48:57;1.20;;;1.10;;
3547;SDS011;1788;49.400;11.092;2022-08-01T14:51:24;1.53;;;1.40;;
3547;SDS011;1788;49.400;11.092;2022-08-01T14:53:50;1.47;;;1.33;;
3547;SDS011;1788;49.400;11.092;2022-08-01T14:56:17;1.37;;;1.30;;
3547;SDS011;1788;49.400;11.092;2022-08-01T14:58:43;1.90;;;1.10;;
3547;SDS011;1788;49.400;11.092;2022-08-01T15:03:37;1.00;;;0.90;;
3547;SDS011;1788;49.400;11.092;2022-08-01T15:06:03;1.10;;;1.00;;
3547;SDS011;1788;49.400;11.092;2022-08-01T15:08:31;1.27;;;0.87;;
3547;SDS011;1788;49.400;11.092;2022-08-01T15:10:57;1.47;;;1.00;;
3547;SDS011;1788;49.400;11.092;2022-08-01T15:13:24;0.80;;;0.70;;
3547;SDS011;1788;49.400;11.092;2022-08-01T15:15:51;1.30;;;1.20;;
3547;SDS011;1788;49.400;11.092;2022-08-01T15:18:17;1.00;;;0.90;;
3547;SDS011;1788;49.400;11.092;2022-08-01T15:20:44;0.93;;;0.83;;
3547;SDS011;1788;49.400;11.092;2022-08-01T15:23:11;1.30;;;1.20;;
3547;SDS011;1788;49.400;11.092;2022-08-01T15:25:38;2.83;;;0.87;;
3547;SDS011;1788;49.400;11.092;2022-08-01T15:28:05;1.00;;;0.90;;
3547;SDS011;1788;49.400;11.092;2022-08-01T15:30:32;1.03;;;1.00;;
3547;SDS011;1788;49.400;11.092;2022-08-01T15:32:59;1.30;;;1.20;;
3547;SDS011;1788;49.400;11.092;2022-08-01T15:35:26;1.30;;;1.20;;
3547;SDS011;1788;49.400;11.092;2022-08-01T15:37:52;1.00;;;0.90;;
3547;SDS011;1788;49.400;11.092;2022-08-01T15:40:19;1.70;;;1.20;;
3547;SDS011;1788;49.400;11.092;2022-08-01T15:42:46;1.47;;;1.37;;
3547;SDS011;1788;49.400;11.092;2022-08-01T15:45:13;1.10;;;1.00;;
3547;SDS011;1788;49.400;11.092;2022-08-01T15:47:40;1.80;;;0.90;;
3547;SDS011;1788;49.400;11.092;2022-08-01T15:50:07;1.13;;;1.07;;
3547;SDS011;1788;49.400;11.092;2022-08-01T15:52:34;1.00;;;0.90;;
3547;SDS011;1788;49.400;11.092;2022-08-01T15:55:01;0.93;;;0.83;;
3547;SDS011;1788;49.400;11.092;2022-08-01T15:57:28;1.30;;;1.10;;
3547;SDS011;1788;49.400;11.092;2022-08-01T15:59:54;1.20;;;1.10;;
3547;SDS011;1788;49.400;11.092;2022-08-01T16:02:21;1.27;;;1.17;;
3547;SDS011;1788;49.400;11.092;2022-08-01T16:04:48;1.23;;;1.13;;
3547;SDS011;1788;49.400;11.092;2022-08-01T16:07:15;1.20;;;1.10;;
3547;SDS011;1788;49.400;11.092;2022-08-01T16:09:42;1.10;;;1.00;;
3547;SDS011;1788;49.400;11.092;2022-08-01T16:12:09;1.30;;;1.20;;
3547;SDS011;1788;49.400;11.092;2022-08-01T16:14:36;1.20;;;0.93;;
3547;SDS011;1788;49.400;11.092;2022-08-01T16:17:03;2.17;;;1.10;;
3547;SDS011;1788;49.400;11.092;2022-08-01T16:19:30;1.27;;;1.03;;
3547;SDS011;1788;49.400;11.092;2022-08-01T16:21:56;1.33;;;1.23;;
3547;SDS011;1788;49.400;11.092;2022-08-01T16:24:23;1.27;;;1.17;;
3547;SDS011;1788;49.400;11.092;2022-08-01T16:26:50;1.50;;;1.40;;
3547;SDS011;1788;49.400;11.092;2022-08-01T16:29:17;1.40;;;1.33;;
3547;SDS011;1788;49.400;11.092;2022-08-01T16:31:44;1.40;;;1.30;;
3547;SDS011;1788;49.400;11.092;2022-08-01T16:34:11;2.07;;;1.40;;
3547;SDS011;1788;49.400;11.092;2022-08-01T16:36:38;1.60;;;1.50;;
3547;SDS011;1788;49.400;11.092;2022-08-01T16:39:04;1.33;;;1.23;;
3547;SDS011;1788;49.400;11.092;2022-08-01T16:41:31;1.40;;;1.30;;
3547;SDS011;1788;49.400;11.092;2022-08-01T16:43:57;1.63;;;1.53;;